Time;durP1;ratioP1;P1;durP2;ratioP2;P2;SDS_P1;SDS_P2;PMS_P1;PMS_P2;Temp;Humidity;BMP_temperature;BMP_pressure;BME280_temperature;BME280_humidity;BME280_pressure;Samples;Min_cycle;Max_cycle;Signal;HPM_P1;HPM_P2
2023/03/01 00:01:50;;;;;;;13.80;6.20;;;;;;;-4.33;80.14;99774.48;105244;1257;74414;-26
2023/03/01 00:04:19;;;;;;;10.40;5.90;;;;;;;-3.71;78.16;99768.45;105400;1257;76000;-26
2023/03/01 00:06:49;;;;;;;14.40;6.60;;;;;;;-3.60;77.08;99761.73;105452;1256;75244;-26
2023/03/01 00:09:17;;;;;;;11.90;6.90;;;;;;;-3.71;76.90;99768.80;105502;1256;61053;-26
2023/03/01 00:11:47;;;;;;;16.10;6.80;;;;;;;-3.96;77.13;99769.75;105603;1256;61235;-26
2023/03/01 00:14:17;;;;;;;14.80;7.80;;;;;;;-4.24;77.78;99763.58;105244;1257;74240;-26
2023/03/01 00:16:46;;;;;;;12.20;6.60;;;;;;;-4.49;78.40;99764.47;105480;1257;75686;-26
2023/03/01 00:19:20;;;;;;;11.10;7.20;;;;;;;-4.72;79.30;99766.52;105299;1256;74249;-25
2023/03/01 00:21:48;;;;;;;10.90;6.90;;;;;;;-4.92;80.07;99762.08;105378;1257;61161;-26
2023/03/01 00:24:17;;;;;;;10.90;4.60;;;;;;;-5.05;80.59;99758.27;105592;1261;61872;-26
2023/03/01 00:26:46;;;;;;;12.40;5.80;;;;;;;-4.58;80.43;99755.89;105547;1257;74432;-26
2023/03/01 00:29:15;;;;;;;8.60;5.20;;;;;;;-3.86;78.52;99751.65;105446;1257;76081;-26
2023/03/01 00:31:44;;;;;;;11.20;6.90;;;;;;;-3.72;76.91;99744.20;105207;1256;73885;-27
2023/03/01 00:34:13;;;;;;;11.50;6.90;;;;;;;-3.92;76.68;99743.41;105335;1256;61143;-26
2023/03/01 00:36:43;;;;;;;14.90;8.60;;;;;;;-4.20;77.28;99743.18;105823;1257;61827;-26
2023/03/01 00:39:13;;;;;;;14.50;7.90;;;;;;;-4.48;78.18;99745.99;105881;1253;74721;-26
2023/03/01 00:41:44;;;;;;;12.60;6.70;;;;;;;-4.72;78.86;99742.79;105707;1253;75790;-26
2023/03/01 00:44:15;;;;;;;10.90;6.80;;;;;;;-4.93;79.90;99740.91;105935;1252;74120;-26
2023/03/01 00:46:44;;;;;;;15.70;6.00;;;;;;;-5.12;81.25;99736.47;105925;1253;61759;-26
2023/03/01 00:49:18;;;;;;;8.90;6.10;;;;;;;-5.23;81.94;99727.04;105859;1253;61574;-26
2023/03/01 00:51:47;;;;;;;10.80;6.60;;;;;;;-4.66;81.55;99723.08;105866;1256;75371;-26
2023/03/01 00:54:15;;;;;;;11.70;7.10;;;;;;;-4.12;79.81;99717.50;105926;1254;75426;-26
2023/03/01 00:56:43;;;;;;;11.00;6.40;;;;;;;-4.07;78.79;99724.91;105774;1252;73966;-26
2023/03/01 00:59:12;;;;;;;9.80;5.90;;;;;;;-4.21;78.79;99723.70;105830;1253;61052;-27
2023/03/01 01:01:41;;;;;;;10.20;6.80;;;;;;;-4.39;79.44;99724.38;105862;1256;61883;-26
2023/03/01 01:04:11;;;;;;;18.40;9.30;;;;;;;-4.63;80.24;99729.84;105896;1253;75426;-26
2023/03/01 01:06:43;;;;;;;13.50;8.80;;;;;;;-4.89;81.42;99730.05;105719;1254;74955;-26
2023/03/01 01:09:18;;;;;;;10.50;5.20;;;;;;;-4.96;82.18;99735.52;105683;1260;73969;-26
2023/03/01 01:11:48;;;;;;;10.00;6.30;;;;;;;-4.46;81.00;99740.04;105669;1252;61128;-26
2023/03/01 01:14:18;;;;;;;10.40;5.30;;;;;;;-4.01;79.08;99731.46;105780;1253;61061;-26
2023/03/01 01:16:46;;;;;;;9.40;5.60;;;;;;;-3.99;78.27;99725.35;105664;1258;75419;-26
2023/03/01 01:19:15;;;;;;;9.90;6.40;;;;;;;-4.16;78.65;99717.03;105659;1256;75834;-26
2023/03/01 01:21:44;;;;;;;10.10;6.00;;;;;;;-4.36;79.19;99714.01;105670;1253;73908;-26
2023/03/01 01:24:13;;;;;;;14.20;7.20;;;;;;;-4.62;79.92;99714.08;105732;1255;61263;-27
2023/03/01 01:26:42;;;;;;;11.10;6.60;;;;;;;-4.85;80.98;99703.23;105816;1256;62241;-26
2023/03/01 01:29:12;;;;;;;10.60;5.80;;;;;;;-4.76;81.49;99696.23;105851;1256;75809;-26
2023/03/01 01:31:41;;;;;;;14.80;6.60;;;;;;;-4.19;80.15;99694.33;105907;1256;73889;-26
2023/03/01 01:34:15;;;;;;;8.60;5.70;;;;;;;-4.01;78.83;99695.52;105710;1253;73605;-26
2023/03/01 01:36:44;;;;;;;8.70;5.60;;;;;;;-4.19;78.89;99690.09;105786;1253;61167;-26
2023/03/01 01:39:12;;;;;;;8.20;4.70;;;;;;;-4.38;79.63;99688.77;105801;1259;62063;-26
2023/03/01 01:41:42;;;;;;;9.50;6.10;;;;;;;-4.56;80.06;99683.85;105746;1253;74313;-26
2023/03/01 01:44:19;;;;;;;5.50;3.90;;;;;;;-4.78;80.98;99688.95;105818;1253;75770;-26
2023/03/01 01:47:08;;;;;;;12.50;6.90;;;;;;;-4.89;81.75;99694.82;105641;1257;73257;-26
2023/03/01 01:49:43;;;;;;;7.80;4.70;;;;;;;-4.36;80.86;99700.27;105831;1253;61116;-26
2023/03/01 01:52:20;;;;;;;11.20;6.40;;;;;;;-4.14;79.58;99700.89;105711;1258;61838;-26
2023/03/01 01:54:50;;;;;;;13.70;7.80;;;;;;;-4.27;79.89;99700.36;105726;1253;75444;-26
2023/03/01 01:57:22;;;;;;;14.20;8.30;;;;;;;-4.41;80.41;99698.80;105838;1253;74833;-26
2023/03/01 01:59:58;;;;;;;15.40;9.10;;;;;;;-4.63;80.68;99694.27;105613;1254;74166;-26
2023/03/01 02:02:28;;;;;;;9.50;7.00;;;;;;;-4.76;81.64;99693.87;105557;1253;61129;-26
2023/03/01 02:05:03;;;;;;;9.00;5.60;;;;;;;-4.47;81.45;99693.09;105862;1251;62380;-26
2023/03/01 02:07:32;;;;;;;14.60;8.70;;;;;;;-3.99;79.58;99688.87;105695;1258;75480;-26
2023/03/01 02:10:01;;;;;;;13.40;8.00;;;;;;;-3.98;79.16;99686.31;105775;1258;74925;-26
2023/03/01 02:12:30;;;;;;;10.90;7.10;;;;;;;-4.09;79.25;99681.00;105648;1253;73914;-25
2023/03/01 02:14:59;;;;;;;12.40;7.70;;;;;;;-4.28;79.87;99668.84;105729;1252;61076;-26
2023/03/01 02:17:31;;;;;;;11.40;6.70;;;;;;;-4.47;80.36;99666.47;105806;1256;61828;-26
2023/03/01 02:20:16;;;;;;;16.20;9.10;;;;;;;-4.67;81.22;99659.22;105700;1254;75260;-25
2023/03/01 02:22:45;;;;;;;21.20;10.20;;;;;;;-4.36;80.98;99654.34;105687;1259;76163;-26
2023/03/01 02:25:19;;;;;;;10.40;6.70;;;;;;;-3.89;79.19;99654.64;105755;1253;74070;-26
2023/03/01 02:28:13;;;;;;;13.20;7.70;;;;;;;-3.83;78.43;99651.85;105563;1257;62033;-26
2023/03/01 02:33:33;;;;;;;12.40;8.80;;;;;;;-4.29;79.63;99636.96;105516;1253;75121;-26
2023/03/01 02:36:08;;;;;;;15.70;9.20;;;;;;;-4.50;80.33;99632.61;105690;1260;75727;-26
2023/03/01 02:38:36;;;;;;;14.20;8.50;;;;;;;-4.48;80.99;99632.92;105809;1259;74308;-26
2023/03/01 02:41:05;;;;;;;12.10;6.40;;;;;;;-3.99;79.92;99637.63;105895;1254;61137;-26
2023/03/01 02:43:33;;;;;;;7.60;5.10;;;;;;;-3.77;78.52;99626.67;105834;1254;61673;-26
2023/03/01 02:46:05;;;;;;;10.80;6.30;;;;;;;-3.89;78.31;99620.70;105717;1253;75319;-26
2023/03/01 02:49:00;;;;;;;11.10;6.50;;;;;;;-4.12;79.03;99619.31;105724;1260;74647;-26
2023/03/01 02:52:03;;;;;;;7.80;5.40;;;;;;;-4.34;79.94;99607.68;105655;1254;74205;-26
2023/03/01 02:54:41;;;;;;;14.80;8.70;;;;;;;-4.55;80.73;99606.91;105465;1254;61126;-26
2023/03/01 02:57:10;;;;;;;9.70;6.10;;;;;;;-4.28;80.50;99612.88;105638;1253;61201;-26
2023/03/01 02:59:39;;;;;;;8.90;5.30;;;;;;;-3.85;78.73;99613.19;105738;1253;74762;-26
2023/03/01 03:02:35;;;;;;;10.50;7.90;;;;;;;-3.82;77.83;99614.84;105926;1253;74924;-27
2023/03/01 03:05:31;;;;;;;9.90;6.90;;;;;;;-4.04;78.16;99599.71;105717;1254;73289;-26
2023/03/01 03:08:01;;;;;;;12.00;6.20;;;;;;;-4.28;79.22;99591.52;105870;1253;61755;-26
2023/03/01 03:10:35;;;;;;;10.60;6.60;;;;;;;-4.43;79.93;99584.39;105480;1257;61832;-26
2023/03/01 03:13:08;;;;;;;7.40;4.80;;;;;;;-4.47;80.22;99576.31;105593;1253;75314;-26
2023/03/01 03:15:38;;;;;;;9.70;6.00;;;;;;;-3.93;79.31;99569.71;105531;1258;76152;-26
2023/03/01 03:18:14;;;;;;;11.70;6.20;;;;;;;-3.65;77.77;99559.13;105576;1254;73033;-26
2023/03/01 03:20:43;;;;;;;12.70;7.80;;;;;;;-3.72;77.41;99559.21;105685;1257;61273;-26
2023/03/01 03:23:11;;;;;;;10.50;7.40;;;;;;;-3.89;77.55;99557.27;105813;1259;61702;-26
2023/03/01 03:25:41;;;;;;;10.00;7.10;;;;;;;-4.11;78.23;99556.03;105905;1254;75447;-26
2023/03/01 03:28:10;;;;;;;13.80;7.20;;;;;;;-4.31;78.72;99554.76;105813;1257;75808;-26
2023/03/01 03:30:39;;;;;;;10.20;7.00;;;;;;;-4.53;79.39;99558.92;105935;1253;74215;-26
2023/03/01 03:33:09;;;;;;;10.70;5.70;;;;;;;-4.62;80.12;99557.66;105682;1253;62502;-26
2023/03/01 03:35:45;;;;;;;20.40;6.10;;;;;;;-4.04;78.97;99553.05;105732;1258;61607;-26
2023/03/01 03:38:17;;;;;;;12.10;7.10;;;;;;;-3.62;77.11;99560.27;105699;1253;74343;-26
2023/03/01 03:40:47;;;;;;;;;;;;;;;-3.71;76.44;99556.16;105849;1254;75783;-26
2023/03/01 03:43:18;;;;;;;12.20;6.80;;;;;;;-3.98;76.96;99555.02;105912;1253;74169;-26
2023/03/01 03:45:49;;;;;;;10.30;6.40;;;;;;;-4.27;78.07;99557.77;105711;1253;61054;-26
2023/03/01 03:48:18;;;;;;;13.80;7.50;;;;;;;-4.46;78.81;99567.33;105705;1258;61721;-26
2023/03/01 03:50:50;;;;;;;11.40;7.20;;;;;;;-4.66;79.53;99564.83;105784;1256;75395;-26
2023/03/01 03:53:19;;;;;;;7.60;4.90;;;;;;;-4.77;80.45;99569.17;105733;1259;75935;-26
2023/03/01 03:55:49;;;;;;;10.00;6.10;;;;;;;-4.26;79.91;99567.92;105799;1253;73954;-26
2023/03/01 03:58:19;;;;;;;11.80;6.10;;;;;;;-3.81;78.09;99565.64;105651;1255;61187;-26
2023/03/01 04:00:50;;;;;;;16.00;8.10;;;;;;;-3.79;77.39;99568.82;105715;1254;61857;-26
2023/03/01 04:03:19;;;;;;;13.60;7.90;;;;;;;-4.00;77.54;99571.48;105588;1251;73387;-26
2023/03/01 04:05:50;;;;;;;14.70;8.90;;;;;;;-4.21;78.26;99573.80;105925;1253;74949;-26
2023/03/01 04:08:22;;;;;;;10.90;7.30;;;;;;;-4.42;78.92;99573.54;105708;1254;72957;-26
2023/03/01 04:10:52;;;;;;;13.50;7.70;;;;;;;-4.62;79.82;99572.92;105544;1253;61069;-26
2023/03/01 04:13:26;;;;;;;12.70;7.30;;;;;;;-4.82;80.55;99564.48;105549;1258;61558;-26
2023/03/01 04:15:55;;;;;;;11.80;6.30;;;;;;;-4.75;81.47;99564.92;105617;1253;75180;-26
2023/03/01 04:18:24;;;;;;;14.20;8.20;;;;;;;-4.07;79.89;99568.19;105791;1256;75572;-26
2023/03/01 04:20:55;;;;;;;17.40;9.60;;;;;;;-3.71;78.03;99568.20;105870;1252;74299;-26
2023/03/01 04:23:25;;;;;;;6.70;4.90;;;;;;;-3.82;77.61;99564.28;105713;1258;61148;-26
2023/03/01 04:25:58;;;;;;;10.20;5.50;;;;;;;-3.94;77.96;99553.94;105895;1254;61321;-26
2023/03/01 04:28:40;;;;;;;18.00;9.50;;;;;;;-4.07;78.51;99550.23;105812;1258;74228;-26
2023/03/01 04:31:20;;;;;;;14.80;7.90;;;;;;;-4.18;79.08;99548.16;105668;1259;74829;-26
2023/03/01 04:33:51;;;;;;;11.20;8.00;;;;;;;-4.28;79.59;99546.58;105695;1257;73192;-27
2023/03/01 04:36:22;;;;;;;12.30;7.90;;;;;;;-3.83;78.68;99550.05;105732;1254;61114;-26
2023/03/01 04:38:51;;;;;;;12.10;8.00;;;;;;;-3.44;76.91;99552.52;105631;1253;61147;-26
2023/03/01 04:41:21;;;;;;;7.50;4.60;;;;;;;-3.45;76.43;99547.61;105894;1257;74133;-26
2023/03/01 04:43:53;;;;;;;16.90;10.60;;;;;;;-3.59;76.98;99551.05;105609;1254;75953;-26
2023/03/01 04:46:21;;;;;;;10.20;6.10;;;;;;;-3.90;78.11;99549.46;105847;1257;74134;-26
2023/03/01 04:48:54;;;;;;;16.00;8.70;;;;;;;-4.00;78.57;99545.36;105550;1257;61304;-26
2023/03/01 04:51:23;;;;;;;8.50;5.80;;;;;;;-4.15;79.36;99533.86;105856;1253;61154;-26
2023/03/01 04:53:51;;;;;;;11.40;7.50;;;;;;;-3.82;78.96;99520.84;105787;1254;75395;-26
2023/03/01 04:56:22;;;;;;;9.40;6.60;;;;;;;-3.37;76.84;99518.27;105650;1255;75767;-26
2023/03/01 04:58:53;;;;;;;11.10;7.20;;;;;;;-3.34;76.17;99526.55;105741;1256;72106;-27
2023/03/01 05:01:21;;;;;;;11.30;7.10;;;;;;;-3.50;76.62;99524.42;105606;1260;61133;-26
2023/03/01 05:03:51;;;;;;;9.90;7.70;;;;;;;-3.66;77.14;99521.80;105821;1254;61718;-26
2023/03/01 05:06:19;;;;;;;13.40;8.70;;;;;;;-3.80;77.79;99531.52;105640;1257;74027;-26
2023/03/01 05:08:48;;;;;;;11.80;7.20;;;;;;;-3.99;78.23;99530.42;105904;1257;75863;-26
2023/03/01 05:11:22;;;;;;;15.10;7.00;;;;;;;-3.91;78.77;99536.09;105833;1257;74186;-26
2023/03/01 05:13:54;;;;;;;11.70;8.20;;;;;;;-3.39;77.22;99532.23;105717;1252;61271;-26
2023/03/01 05:16:23;;;;;;;11.50;7.00;;;;;;;-3.20;75.90;99522.23;105799;1256;61606;-26
2023/03/01 05:18:55;;;;;;;8.60;6.90;;;;;;;-3.35;76.20;99520.29;105867;1254;75183;-26
2023/03/01 05:21:23;;;;;;;10.00;6.80;;;;;;;-3.50;76.77;99510.52;105878;1254;75494;-26
2023/03/01 05:23:58;;;;;;;7.80;5.00;;;;;;;-3.62;77.38;99513.42;105873;1256;74009;-26
2023/03/01 05:26:28;;;;;;;9.80;5.80;;;;;;;-3.74;77.71;99512.24;105941;1252;61279;-26
2023/03/01 05:28:58;;;;;;;8.00;4.90;;;;;;;-3.85;78.27;99526.33;105908;1257;61527;-26
2023/03/01 05:31:30;;;;;;;11.20;6.60;;;;;;;-3.27;77.03;99534.93;105879;1256;74215;-26
2023/03/01 05:33:59;;;;;;;8.60;6.20;;;;;;;-2.95;75.28;99540.82;105904;1256;75800;-26
2023/03/01 05:36:28;;;;;;;12.00;8.30;;;;;;;-2.98;74.97;99541.55;105912;1253;73913;-26
2023/03/01 05:38:58;;;;;;;12.60;7.50;;;;;;;-3.11;75.51;99543.49;105932;1254;61055;-26
2023/03/01 05:41:26;;;;;;;14.10;8.30;;;;;;;-3.24;75.80;99540.83;105933;1256;61690;-26
2023/03/01 05:43:56;;;;;;;11.50;7.50;;;;;;;-3.43;76.56;99540.27;105763;1255;75479;-26
2023/03/01 05:46:29;;;;;;;12.00;7.20;;;;;;;-3.47;77.12;99552.06;105901;1253;75872;-26
2023/03/01 05:48:58;;;;;;;11.90;8.60;;;;;;;-3.58;77.74;99555.97;105886;1256;74924;-26
2023/03/01 05:51:26;;;;;;;16.60;9.20;;;;;;;-3.17;77.06;99553.94;105913;1253;61086;-26
2023/03/01 05:53:55;;;;;;;14.90;8.20;;;;;;;-2.68;75.20;99544.56;105897;1256;61760;-26
2023/03/01 05:56:23;;;;;;;11.10;8.20;;;;;;;-2.76;74.72;99551.02;105788;1253;74305;-26
2023/03/01 05:58:52;;;;;;;15.40;9.00;;;;;;;-2.84;75.24;99548.11;105789;1254;75554;-26
2023/03/01 06:01:21;;;;;;;14.60;8.70;;;;;;;-2.95;75.21;99546.09;105856;1256;74161;-27
2023/03/01 06:03:49;;;;;;;13.40;8.60;;;;;;;-3.07;76.35;99551.73;105899;1251;61208;-26
2023/03/01 06:06:17;;;;;;;16.00;9.00;;;;;;;-3.20;76.55;99549.76;105911;1255;61572;-26
2023/03/01 06:08:48;;;;;;;10.30;7.10;;;;;;;-3.16;77.05;99543.23;105937;1253;75086;-26
2023/03/01 06:11:17;;;;;;;18.20;8.50;;;;;;;-2.59;75.75;99539.30;105897;1258;75890;-26
2023/03/01 06:13:46;;;;;;;14.50;8.60;;;;;;;-2.26;74.24;99548.17;105805;1256;74225;-26
2023/03/01 06:16:18;;;;;;;12.30;7.70;;;;;;;-2.25;73.62;99541.19;105801;1253;61130;-26
2023/03/01 06:18:47;;;;;;;13.40;8.40;;;;;;;-2.41;74.29;99541.83;105735;1265;61152;-26
2023/03/01 06:21:15;;;;;;;13.90;8.40;;;;;;;-2.49;74.76;99546.09;105790;1253;75331;-26
2023/03/01 06:23:44;;;;;;;12.30;7.90;;;;;;;-2.59;75.48;99542.70;105920;1256;75990;-26
2023/03/01 06:26:13;;;;;;;14.30;8.50;;;;;;;-2.59;75.90;99546.09;105848;1254;73695;-26
2023/03/01 06:28:41;;;;;;;16.20;9.60;;;;;;;-2.60;75.83;99546.64;105892;1251;60944;-26
2023/03/01 06:31:10;;;;;;;10.70;6.30;;;;;;;-2.23;75.50;99553.20;105834;1255;61682;-26
2023/03/01 06:33:39;;;;;;;11.20;7.70;;;;;;;-1.70;73.34;99555.48;105657;1256;75328;-26
2023/03/01 06:36:09;;;;;;;15.10;8.60;;;;;;;-1.50;72.85;99546.81;105610;1256;74951;-26
2023/03/01 06:38:37;;;;;;;12.40;7.50;;;;;;;-1.64;72.68;99556.86;105874;1257;74056;-26
2023/03/01 06:41:06;;;;;;;18.50;10.40;;;;;;;-1.72;73.32;99559.92;105875;1253;60995;-26
2023/03/01 06:43:34;;;;;;;13.70;8.30;;;;;;;-1.80;73.11;99547.36;105771;1259;61905;-26
2023/03/01 06:46:05;;;;;;;13.10;8.50;;;;;;;-1.97;73.98;99557.42;105914;1254;75500;-26
2023/03/01 06:48:34;;;;;;;13.30;8.40;;;;;;;-2.01;75.46;99563.98;105781;1258;75766;-26
2023/03/01 06:51:02;;;;;;;11.50;6.80;;;;;;;-1.98;75.85;99564.77;105778;1253;73918;-26
2023/03/01 06:53:31;;;;;;;13.60;7.90;;;;;;;-1.75;74.74;99564.08;105533;1256;61575;-26
2023/03/01 06:56:00;;;;;;;12.80;8.00;;;;;;;-1.28;72.90;99559.59;105784;1257;61107;-26
2023/03/01 06:58:29;;;;;;;13.20;8.00;;;;;;;-1.23;73.42;99561.52;105767;1254;75547;-26
2023/03/01 07:00:57;;;;;;;11.70;7.30;;;;;;;-1.30;73.21;99558.96;105717;1260;75902;-26
2023/03/01 07:03:27;;;;;;;18.30;9.90;;;;;;;-1.47;74.67;99561.06;105610;1254;73997;-26
2023/03/01 07:05:55;;;;;;;18.80;10.20;;;;;;;-1.66;74.93;99561.17;105548;1259;61061;-27
2023/03/01 07:08:25;;;;;;;16.70;9.00;;;;;;;-1.73;75.92;99563.54;105744;1264;61697;-26
2023/03/01 07:10:55;;;;;;;16.80;9.40;;;;;;;-1.71;76.17;99568.42;105842;1256;74508;-26
2023/03/01 07:13:25;;;;;;;15.50;9.00;;;;;;;-1.66;76.18;99560.31;105702;1260;75928;-26
2023/03/01 07:15:55;;;;;;;12.50;8.40;;;;;;;-1.14;74.91;99558.21;105898;1256;73953;-26
2023/03/01 07:18:24;;;;;;;14.10;8.30;;;;;;;-0.99;72.99;99567.56;105872;1256;61189;-26
2023/03/01 07:21:05;;;;;;;14.80;8.30;;;;;;;-1.12;74.67;99585.44;105894;1256;61939;-26
2023/03/01 07:23:33;;;;;;;12.80;8.70;;;;;;;-1.47;75.64;99579.11;105715;1262;74344;-26
2023/03/01 07:26:02;;;;;;;13.60;8.70;;;;;;;-1.48;76.57;99580.16;105884;1255;75698;-26
2023/03/01 07:28:30;;;;;;;12.00;7.70;;;;;;;-1.72;77.77;99561.47;105944;1256;72295;-26
2023/03/01 07:31:02;;;;;;;13.70;8.80;;;;;;;-1.70;78.69;99577.95;105735;1254;61072;-26
2023/03/01 07:33:35;;;;;;;17.20;10.40;;;;;;;-1.74;78.58;99565.77;105622;1254;61980;-26
2023/03/01 07:36:04;;;;;;;17.40;9.40;;;;;;;-1.72;78.46;99573.89;105665;1258;74701;-26
2023/03/01 07:38:33;;;;;;;13.50;8.80;;;;;;;-1.63;77.95;99579.14;105675;1262;75622;-26
2023/03/01 07:41:03;;;;;;;14.80;8.40;;;;;;;-1.54;78.90;99584.91;105770;1253;74238;-25
2023/03/01 07:43:31;;;;;;;13.80;9.20;;;;;;;-1.65;78.80;99573.57;105703;1259;61038;-25
2023/03/01 07:46:01;;;;;;;15.50;8.40;;;;;;;-1.68;79.33;99569.72;105771;1264;61864;-26
2023/03/01 07:48:30;;;;;;;15.40;9.90;;;;;;;-1.80;78.57;99559.42;105321;1261;75062;-25
2023/03/01 07:51:03;;;;;;;17.40;11.10;;;;;;;-1.57;77.35;99568.10;105784;1257;74675;-26
2023/03/01 07:53:36;;;;;;;17.50;12.80;;;;;;;-1.66;77.05;99563.03;105680;1255;73218;-25
2023/03/01 07:56:06;;;;;;;30.20;11.40;;;;;;;-1.67;77.60;99564.75;105760;1266;61128;-26
2023/03/01 07:58:35;;;;;;;15.20;10.40;;;;;;;-1.77;78.19;99571.64;105660;1268;61258;-26
2023/03/01 08:01:06;;;;;;;19.00;11.50;;;;;;;-1.95;79.02;99581.71;105647;1255;76049;-26
2023/03/01 08:03:34;;;;;;;16.60;11.00;;;;;;;-2.01;79.30;99589.85;105680;1259;74578;-25
2023/03/01 08:06:04;;;;;;;13.80;8.20;;;;;;;-1.76;79.27;99597.48;105771;1257;74188;-25
2023/03/01 08:08:33;;;;;;;17.20;9.30;;;;;;;-1.74;79.24;99592.48;105686;1258;62639;-25
2023/03/01 08:11:02;;;;;;;14.00;8.20;;;;;;;-1.97;80.64;99576.30;105734;1259;61866;-25
2023/03/01 08:13:31;;;;;;;14.30;8.20;;;;;;;-2.16;81.96;99586.58;105716;1255;74284;-26
2023/03/01 08:16:11;;;;;;;13.10;8.20;;;;;;;-2.30;82.78;99599.61;105758;1263;75837;-26
2023/03/01 08:18:40;;;;;;;13.70;7.80;;;;;;;-2.04;82.91;99609.65;105685;1259;74126;-25
2023/03/01 08:21:14;;;;;;;13.30;7.70;;;;;;;-1.85;81.72;99609.09;105705;1259;60968;-26
2023/03/01 08:23:45;;;;;;;15.20;9.40;;;;;;;-1.89;81.53;99611.19;105636;1261;61855;-26
2023/03/01 08:26:16;;;;;;;15.40;9.10;;;;;;;-2.20;83.23;99606.05;105766;1254;75310;-25
2023/03/01 08:28:45;;;;;;;15.30;8.50;;;;;;;-2.23;83.64;99602.55;105330;1261;75884;-25
2023/03/01 08:31:24;;;;;;;11.90;7.60;;;;;;;-2.15;83.73;99589.29;105522;1259;73243;-25
2023/03/01 08:33:55;;;;;;;14.70;8.80;;;;;;;-2.01;83.24;99586.61;105488;1257;61108;-26
2023/03/01 08:36:30;;;;;;;12.50;7.60;;;;;;;-1.79;82.59;99582.90;105409;1260;61849;-26
2023/03/01 08:38:59;;;;;;;13.90;8.40;;;;;;;-1.95;82.79;99584.30;105569;1253;75626;-26
2023/03/01 08:41:28;;;;;;;16.30;10.60;;;;;;;-2.07;83.59;99588.77;105542;1257;74515;-26
2023/03/01 08:43:59;;;;;;;15.30;9.80;;;;;;;-2.13;83.73;99582.25;105675;1257;73104;-26
2023/03/01 08:46:33;;;;;;;17.90;9.70;;;;;;;-2.06;83.89;99577.36;105863;1257;61132;-26
2023/03/01 08:49:13;;;;;;;17.00;9.30;;;;;;;-1.87;83.03;99577.14;103964;1257;61194;-26
2023/03/01 08:51:42;;;;;;;14.20;7.80;;;;;;;-1.81;82.80;99583.29;105433;1261;74359;-25
2023/03/01 08:54:16;;;;;;;12.40;6.70;;;;;;;-1.65;82.86;99584.48;105558;1255;75666;-26
2023/03/01 08:56:49;;;;;;;13.50;8.60;;;;;;;-1.95;83.43;99578.98;105668;1257;73997;-26
2023/03/01 08:59:19;;;;;;;14.70;7.60;;;;;;;-1.89;84.31;99579.02;105601;1257;61808;-25
2023/03/01 09:01:47;;;;;;;14.00;8.60;;;;;;;-1.62;82.96;99582.01;105605;1257;61163;-25
2023/03/01 09:04:16;;;;;;;15.10;8.70;;;;;;;-1.58;82.16;99572.38;105584;1254;75370;-26
2023/03/01 09:06:50;;;;;;;16.50;8.30;;;;;;;-1.50;82.24;99580.39;105519;1257;75823;-26
2023/03/01 09:09:20;;;;;;;15.50;9.50;;;;;;;-1.37;82.33;99576.16;105550;1255;73278;-25
2023/03/01 09:11:49;;;;;;;19.70;9.00;;;;;;;-1.54;82.32;99571.95;105576;1254;61716;-25
2023/03/01 09:14:18;;;;;;;13.50;7.00;;;;;;;-1.77;82.96;99570.45;105534;1266;61544;-25
2023/03/01 09:16:47;;;;;;;15.40;9.80;;;;;;;-1.44;81.91;99567.29;105642;1254;75399;-25
2023/03/01 09:19:16;;;;;;;9.80;5.90;;;;;;;-1.35;81.21;99565.73;105540;1257;74892;-26
2023/03/01 09:21:55;;;;;;;20.80;10.10;;;;;;;-1.21;81.34;99569.98;105564;1257;73195;-25
2023/03/01 09:24:25;;;;;;;13.40;8.30;;;;;;;-1.38;81.32;99563.41;105648;1262;61430;-25
2023/03/01 09:26:55;;;;;;;12.20;8.40;;;;;;;-1.38;82.16;99567.83;105684;1257;62066;-26
2023/03/01 09:29:24;;;;;;;12.40;7.70;;;;;;;-1.54;82.75;99567.71;105897;1254;75143;-26
2023/03/01 09:31:54;;;;;;;17.10;10.60;;;;;;;-1.03;81.37;99570.57;105878;1255;75773;-26
2023/03/01 09:34:24;;;;;;;11.60;7.50;;;;;;;-0.72;79.66;99574.54;105631;1258;73283;-26
2023/03/01 09:36:53;;;;;;;12.70;7.80;;;;;;;-0.83;79.04;99564.95;105807;1255;61084;-26
2023/03/01 09:39:21;;;;;;;19.30;8.60;;;;;;;-0.93;79.69;99563.30;105780;1252;61080;-25
2023/03/01 09:41:54;;;;;;;15.60;8.40;;;;;;;-1.06;80.04;99560.23;105834;1255;75386;-26
2023/03/01 09:44:35;;;;;;;12.80;7.90;;;;;;;-1.19;80.80;99568.92;105559;1251;75875;-26
2023/03/01 09:47:05;;;;;;;28.10;7.50;;;;;;;-1.16;80.98;99562.85;105495;1256;74180;-25
2023/03/01 09:49:34;;;;;;;13.00;8.20;;;;;;;-0.77;79.26;99560.67;105413;1254;61140;-26
2023/03/01 09:52:14;;;;;;;12.40;7.20;;;;;;;-0.40;78.39;99566.33;105511;1259;61801;-25
2023/03/01 09:54:43;;;;;;;18.90;9.80;;;;;;;-0.37;77.47;99562.67;105722;1258;74327;-26
2023/03/01 09:57:19;;;;;;;13.80;7.50;;;;;;;-0.51;78.19;99565.10;105760;1258;75564;-26
2023/03/01 09:59:57;;;;;;;11.30;7.30;;;;;;;-0.72;78.78;99562.08;105563;1252;73751;-26
2023/03/01 10:02:39;;;;;;;16.50;8.90;;;;;;;-0.67;79.35;99565.89;105670;1252;61140;-25
2023/03/01 10:05:24;;;;;;;12.50;7.80;;;;;;;-0.69;79.83;99563.01;105705;1257;61801;-26
2023/03/01 10:08:21;;;;;;;11.70;7.70;;;;;;;-0.11;77.51;99558.17;105708;1251;75381;-25
2023/03/01 10:10:50;;;;;;;12.50;8.40;;;;;;;-0.01;75.78;99554.30;105914;1257;75694;-25
2023/03/01 10:13:45;;;;;;;12.70;7.80;;;;;;;-0.25;76.42;99555.50;105729;1254;75040;-25
2023/03/01 10:16:40;;;;;;;15.30;8.70;;;;;;;-0.46;77.41;99550.45;105935;1254;61303;-27
2023/03/01 10:19:15;;;;;;;18.40;9.10;;;;;;;-0.92;78.81;99552.73;105740;1252;61793;-26
2023/03/01 10:21:45;;;;;;;11.60;7.30;;;;;;;-1.03;79.76;99552.15;105516;1254;75241;-26
2023/03/01 10:24:21;;;;;;;11.70;7.10;;;;;;;-0.76;79.76;99561.35;105429;1254;75832;-25
2023/03/01 10:26:55;;;;;;;13.50;8.00;;;;;;;-0.29;77.92;99552.71;105762;1254;74169;-25
2023/03/01 10:29:30;;;;;;;15.00;8.90;;;;;;;-0.13;76.68;99548.86;105704;1257;61141;-25
2023/03/01 10:31:59;;;;;;;17.30;10.70;;;;;;;-0.21;77.01;99549.77;105718;1257;62069;-25
2023/03/01 10:34:33;;;;;;;19.60;9.50;;;;;;;-0.32;77.74;99549.05;105947;1254;75508;-25
2023/03/01 10:37:21;;;;;;;16.10;9.80;;;;;;;-0.52;77.97;99549.45;105710;1260;75734;-25
2023/03/01 10:40:08;;;;;;;17.20;9.60;;;;;;;-0.64;78.20;99550.30;105721;1254;74010;-25
2023/03/01 10:42:46;;;;;;;16.20;8.90;;;;;;;-0.51;79.43;99553.84;105698;1254;61229;-25
2023/03/01 10:45:37;;;;;;;16.40;9.20;;;;;;;-0.16;77.56;99540.58;105711;1253;61078;-25
2023/03/01 10:48:19;;;;;;;12.00;8.50;;;;;;;0.36;75.74;99534.39;105620;1254;75368;-25
2023/03/01 10:50:49;;;;;;;15.10;8.50;;;;;;;0.31;75.56;99532.34;105434;1251;74736;-25
2023/03/01 10:53:24;;;;;;;19.90;9.70;;;;;;;-0.00;75.30;99530.21;105515;1254;73103;-25
2023/03/01 10:55:56;;;;;;;;;;;;;;;-0.22;76.38;99541.09;105682;1259;61093;-25
2023/03/01 10:58:25;;;;;;;13.20;7.20;;;;;;;-0.22;76.62;99536.33;105452;1252;61164;-25
2023/03/01 11:00:56;;;;;;;16.10;9.00;;;;;;;-0.32;77.40;99528.77;105828;1254;75300;-25
2023/03/01 11:03:28;;;;;;;17.30;8.00;;;;;;;-0.56;78.01;99529.09;105645;1254;75920;-26
2023/03/01 11:06:19;;;;;;;11.60;7.60;;;;;;;-0.30;77.83;99532.09;105708;1256;73030;-25
2023/03/01 11:08:49;;;;;;;13.30;6.60;;;;;;;0.24;75.86;99525.73;105631;1251;61266;-25
2023/03/01 11:11:34;;;;;;;15.40;8.40;;;;;;;0.26;75.40;99527.89;105459;1251;61787;-25
2023/03/01 11:14:17;;;;;;;17.90;9.40;;;;;;;0.03;75.91;99527.03;105436;1251;73353;-25
2023/03/01 11:16:59;;;;;;;;;;;;;;;0.09;76.18;99532.65;105642;1257;75860;-25
2023/03/01 11:19:28;;;;;;;14.50;8.20;;;;;;;0.07;76.28;99529.84;105610;1254;74210;-25
2023/03/01 11:22:19;;;;;;;12.20;6.90;;;;;;;-0.09;76.95;99527.06;105522;1254;61143;-25
2023/03/01 11:24:50;;;;;;;12.70;7.20;;;;;;;0.07;77.18;99519.06;105481;1253;61555;-25
2023/03/01 11:27:40;;;;;;;13.70;8.00;;;;;;;0.60;75.26;99517.55;105557;1254;75393;-25
2023/03/01 11:30:27;;;;;;;12.40;7.70;;;;;;;0.86;74.47;99512.77;105408;1260;73986;-25
2023/03/01 11:33:08;;;;;;;11.70;7.50;;;;;;;0.70;74.17;99508.88;105500;1251;74142;-25
2023/03/01 11:35:41;;;;;;;15.50;7.50;;;;;;;0.31;75.25;99512.16;105841;1252;61466;-25
2023/03/01 11:38:20;;;;;;;11.90;7.10;;;;;;;0.21;75.88;99518.11;105470;1254;61020;-25
2023/03/01 11:41:17;;;;;;;10.80;7.70;;;;;;;0.35;76.14;99514.62;105665;1257;75348;-25
2023/03/01 11:44:00;;;;;;;12.60;6.80;;;;;;;0.18;76.57;99526.59;105267;1260;75688;-25
2023/03/01 11:46:48;;;;;;;15.80;7.00;;;;;;;0.41;75.72;99519.89;105855;1256;73757;-25